Flight Track Log - Related Links

Times and Time Zones

All times are in EDT time to prevent confusion due to time zone crossing. See the UAL3740 flight status page for this flight to view local times or setup timezone preferences in your user account.

Time Position Orientation Groundspeed Altitude Reporting Facility
EDT Latitude Longitude Course Direction KTS MPH feet Rate Location/Type
Sat 08:17:41 38.9833 -77.4500 360° North 190 219 2,300  Level Potomac TRACON
Sat 08:18:41 39.0500 -77.4500 360° North 249 287 5,300 3,124 Climbing Potomac TRACON
Sat 08:19:42 39.1167 -77.4500 360° North 257 296 8,600 2,452 Climbing Potomac TRACON
Sat 08:20:36 39.1667 -77.3667 52° Northeast 345 397 10,000 947 Climbing Potomac TRACON
Sat 08:21:36 39.1333 -77.2500 110° East 370 426 10,400 1,158 Climbing Potomac TRACON
Sat 08:22:30 39.0833 -77.1500 123° Southeast 375 432 12,200 2,576 Climbing Potomac TRACON
Sat 08:24:47 39.1008 -76.8406 86° East 396 456 18,600 2,345 Climbing Washington Center
Sat 08:25:47 39.1147 -76.6883 83° East 402 463 19,900 1,450 Climbing Washington Center
Sat 08:26:47 39.1264 -76.5333 84° East 417 480 21,500 1,550 Climbing Washington Center
Sat 08:27:47 39.1403 -76.3650 84° East 443 510 23,000 750 Climbing Washington Center
Sat 08:28:47 39.1622 -76.1644 82° East 493 567 23,000 550 Level Washington Center
Sat 08:29:47 39.1817 -75.9772 82° East 521 600 24,100 900 Climbing Washington Center
Sat 08:30:47 39.2550 -75.8142 60° Northeast 521 600 24,800 1,250 Climbing Washington Center
Sat 08:31:47 39.3572 -75.6747 47° Northeast 506 582 26,600 1,650 Climbing Washington Center
Sat 08:32:47 39.4594 -75.5378 46° Northeast 511 588 28,100 1,300 Climbing Washington Center
Sat 08:33:47 39.5614 -75.3978 47° Northeast 516 594 29,200 1,200 Climbing Washington Center
Sat 08:34:47 39.6631 -75.2600 46° Northeast 526 605 30,500 988 Climbing Washington Center
Sat 08:35:12 39.6917 -75.2222 45° Northeast 552 635 30,600 1,171 Climbing New York Center
Sat 08:36:09 39.8039 -75.0647 47° Northeast 563 648 32,100 1,220 Climbing New York Center
Sat 08:37:10 39.9092 -74.9194 47° Northeast 557 641 33,000 443 Climbing New York Center
Sat 08:38:11 40.0036 -74.7842 48° Northeast 559 643 33,000  Level New York Center
Sat 08:39:12 40.1036 -74.5944 55° Northeast 568 654 33,000  Level New York Center
Sat 08:40:12 40.1767 -74.4003 64° Northeast 582 670 33,000  Level New York Center
Sat 08:41:10 40.2469 -74.2083 64° Northeast 588 677 33,000 -750 Level New York Center
Sat 08:43:00 40.3742 -73.8619 64° Northeast 589 678 30,900 -1,800 Descending Boston Center
Sat 08:44:00 40.4389 -73.6806 65° Northeast 562 647 27,900 -1,983 Descending Boston Center
Sat 08:44:58 40.4947 -73.5125 66° East 554 638 27,000 -508 Descending Boston Center
Sat 08:45:58 40.5672 -73.3142 64° Northeast 546 628 26,900  Descending Boston Center
Sat 08:46:58 40.6331 -73.1347 64° Northeast 541 623 27,000 -942 Climbing Boston Center
Sat 08:47:59 40.6944 -72.9547 66° East 541 623 25,000 -2,231 Descending Boston Center
Sat 08:48:59 40.7597 -72.7825 63° Northeast 541 623 22,500 -2,380 Descending Boston Center
Sat 08:50:00 40.8164 -72.6183 65° Northeast 521 600 20,200 -2,269 Descending Boston Center
Sat 08:50:58 40.8644 -72.4703 67° East 489 563 18,000 -2,237 Descending Boston Center
Sat 08:51:58 40.9186 -72.3192 65° Northeast 465 535 15,800 -2,336 Descending Boston Center
Sat 08:52:51 40.9683 -72.1761 65° Northeast 462 532 13,600 -2,348 Descending Boston Center
Sat 08:53:53 41.0219 -72.0164 66° East 452 520 11,300 -1,707 Descending Boston Center
Sat 08:54:54 41.0861 -71.9058 52° Northeast 389 448 10,100 -689 Descending Boston Center
Sat 08:55:55 41.1650 -71.8500 28° Northeast 327 376 9,900 -900 Descending Boston Center
Sat 08:56:54 41.2397 -71.7942 29° Northeast 310 357 8,300 -1,613 Descending Boston Center
Sat 08:57:54 41.3144 -71.7464 26° Northeast 302 348 6,700 -1,537 Descending Boston Center
Sat 08:58:55 41.3933 -71.6903 28° Northeast 296 341 5,200 -984 Descending Boston Center
Sat 08:59:56 41.4536 -71.6453 29° Northeast 245 282 4,700 -694 Descending Boston Center
Sat 09:00:56 41.5033 -71.6086 29° Northeast 206 237 3,800 -800 Descending Boston Center
Sat 09:01:56 41.5428 -71.5803 28° Northeast 165 190 3,100 -829 Descending Boston Center
Sat 09:02:59 41.5819 -71.5492 31° Northeast 160 184 2,100 -574 Descending Boston Center
Sat 09:03:51 41.6150 -71.5211 32° Northeast 160 184 2,000 -224 Descending Boston Center
Sat 09:04:46 41.6483 -71.4900 35° Northeast 146 168 1,700 -541 Descending Boston Center
Sat 09:05:53 41.6792 -71.4644 32° Northeast 124 143 900 -732 Descending Boston Center
Sat 09:06:49 41.7061 -71.4419 32° Northeast 125 144 200 -750 Descending Boston Center

Login

Don't have an account? Register now (free) for customized features, flight alerts, and more!